createdAt,value
2023-05-14T00:01:30.902Z,78.82
2023-05-14T00:03:59.238Z,78.81
2023-05-14T00:06:27.452Z,78.72
2023-05-14T00:08:55.684Z,79.09
2023-05-14T00:11:24.139Z,78.89
2023-05-14T00:13:54.069Z,78.40
2023-05-14T00:16:22.356Z,78.26
2023-05-14T00:18:56.032Z,78.17
2023-05-14T00:21:24.849Z,77.95
2023-05-14T00:23:53.516Z,78.32
2023-05-14T00:29:08.681Z,80.20
2023-05-14T00:31:37.162Z,80.49
2023-05-14T00:34:05.393Z,80.28
2023-05-14T00:36:33.635Z,80.40
2023-05-14T00:39:02.025Z,79.70
2023-05-14T00:41:30.417Z,79.62
2023-05-14T00:43:58.492Z,80.40
2023-05-14T00:46:29.833Z,81.54
2023-05-14T00:48:58.801Z,81.07
2023-05-14T00:51:27.336Z,82.11
2023-05-14T00:53:59.141Z,81.70
2023-05-14T00:56:29.323Z,82.35
2023-05-14T00:58:57.517Z,81.96
2023-05-14T01:01:28.663Z,83.06
2023-05-14T01:03:59.521Z,83.45
2023-05-14T01:06:38.088Z,83.77
2023-05-14T01:09:15.556Z,84.74
2023-05-14T01:11:50.214Z,84.79
2023-05-14T01:14:24.291Z,84.55
2023-05-14T01:16:58.374Z,82.70
2023-05-14T01:19:38.789Z,82.65
2023-05-14T01:22:09.419Z,82.81
2023-05-14T01:24:41.201Z,84.22
2023-05-14T01:27:17.572Z,83.40
2023-05-14T01:29:54.995Z,83.20
2023-05-14T01:32:25.849Z,83.07
2023-05-14T01:34:57.039Z,83.25
2023-05-14T01:37:28.564Z,82.11
2023-05-14T01:39:58.389Z,81.73
2023-05-14T01:42:27.460Z,81.85
2023-05-14T01:44:56.227Z,82.40
2023-05-14T01:47:24.837Z,82.97
2023-05-14T01:49:54.045Z,82.86
2023-05-14T01:52:22.434Z,83.16
2023-05-14T01:54:53.287Z,82.36
2023-05-14T01:57:21.800Z,82.66
2023-05-14T01:59:50.294Z,80.24
2023-05-14T02:02:19.112Z,79.83
2023-05-14T02:04:47.361Z,79.83
2023-05-14T02:07:15.825Z,80.31
2023-05-14T02:09:45.583Z,81.42
2023-05-14T02:12:15.499Z,82.30
2023-05-14T02:14:43.563Z,82.23
2023-05-14T02:17:11.794Z,82.42
2023-05-14T02:19:40.344Z,81.55
2023-05-14T02:22:09.108Z,81.50
2023-05-14T02:24:37.510Z,83.18
2023-05-14T02:27:06.399Z,84.24
2023-05-14T02:29:37.212Z,84.72
2023-05-14T02:32:06.380Z,84.40
2023-05-14T02:34:36.198Z,84.60
2023-05-14T02:37:04.492Z,83.27
2023-05-14T02:39:32.629Z,83.17
2023-05-14T02:42:01.213Z,83.65
2023-05-14T02:44:32.172Z,84.51
2023-05-14T02:47:01.746Z,84.37
2023-05-14T02:49:30.145Z,84.34
2023-05-14T02:51:58.410Z,84.62
2023-05-14T02:54:26.522Z,84.33
2023-05-14T02:56:54.751Z,83.89
2023-05-14T02:59:24.489Z,84.03
2023-05-14T03:01:53.557Z,82.60
2023-05-14T03:04:23.751Z,83.58
2023-05-14T03:06:51.895Z,83.39
2023-05-14T03:09:20.050Z,84.07
2023-05-14T03:11:48.302Z,84.79
2023-05-14T03:14:16.562Z,84.77
2023-05-14T03:16:44.719Z,84.74
2023-05-14T03:19:13.576Z,84.36
2023-05-14T03:21:44.588Z,85.05
2023-05-14T03:24:12.625Z,84.88
2023-05-14T03:26:41.262Z,84.55
2023-05-14T03:29:11.254Z,85.58
2023-05-14T03:31:39.534Z,84.87
2023-05-14T03:34:07.684Z,85.48
2023-05-14T03:36:36.585Z,85.04
2023-05-14T03:39:07.204Z,85.13
2023-05-14T03:41:36.251Z,84.93
2023-05-14T03:44:06.532Z,85.46
2023-05-14T03:46:34.647Z,85.98
2023-05-14T03:49:02.880Z,86.15
2023-05-14T03:51:31.908Z,85.88
2023-05-14T03:54:00.133Z,86.58
2023-05-14T03:56:29.534Z,88.05
2023-05-14T03:58:58.508Z,87.97
2023-05-14T04:01:26.953Z,89.36
2023-05-14T04:03:55.565Z,90.55
2023-05-14T04:06:23.750Z,92.32
2023-05-14T04:08:52.063Z,92.91
2023-05-14T04:11:20.214Z,93.52
2023-05-14T04:13:49.714Z,93.84
2023-05-14T04:16:17.997Z,94.28
2023-05-14T04:18:46.420Z,93.01
2023-05-14T04:21:16.058Z,91.82
2023-05-14T04:23:44.175Z,91.47
2023-05-14T04:26:12.450Z,91.25
2023-05-14T04:28:40.670Z,88.49
2023-05-14T04:31:10.258Z,88.39
2023-05-14T04:33:38.494Z,90.21
2023-05-14T04:36:08.448Z,89.71
2023-05-14T04:38:36.912Z,88.75
2023-05-14T04:41:06.176Z,86.99
2023-05-14T04:43:34.383Z,88.36
2023-05-14T04:46:03.582Z,88.16
2023-05-14T04:48:33.697Z,88.13
2023-05-14T04:51:02.626Z,88.17
2023-05-14T04:53:31.977Z,88.96
2023-05-14T04:56:00.975Z,88.10
2023-05-14T04:58:33.812Z,88.49
2023-05-14T05:01:05.240Z,88.53
2023-05-14T05:03:35.568Z,88.14
2023-05-14T05:06:05.071Z,87.77
2023-05-14T05:08:33.381Z,86.55
2023-05-14T05:11:01.882Z,86.51
2023-05-14T05:13:32.821Z,85.10
2023-05-14T05:16:01.141Z,85.46
2023-05-14T05:18:29.935Z,84.71
2023-05-14T05:21:00.508Z,81.62
2023-05-14T05:23:29.425Z,84.35
2023-05-14T05:25:57.925Z,85.80
2023-05-14T05:28:26.325Z,83.95
2023-05-14T05:30:54.746Z,85.40
2023-05-14T05:33:23.099Z,85.00
2023-05-14T05:35:52.799Z,85.75
2023-05-14T05:38:22.631Z,84.79
2023-05-14T05:40:51.032Z,83.19
2023-05-14T05:43:20.182Z,84.49
2023-05-14T05:45:48.896Z,83.68
2023-05-14T05:48:17.176Z,82.58
2023-05-14T05:50:47.603Z,80.72
2023-05-14T05:53:16.983Z,82.04
2023-05-14T05:55:46.583Z,81.79
2023-05-14T05:58:17.440Z,82.37
2023-05-14T06:00:45.913Z,81.85
2023-05-14T06:03:15.078Z,80.94
2023-05-14T06:05:43.756Z,82.94
2023-05-14T06:08:12.790Z,83.23
2023-05-14T06:10:41.048Z,83.23
2023-05-14T06:13:13.885Z,81.17
2023-05-14T06:15:42.148Z,81.65
2023-05-14T06:18:10.435Z,82.30
2023-05-14T06:20:40.293Z,81.15
2023-05-14T06:23:09.393Z,81.85
2023-05-14T06:25:38.316Z,83.62
2023-05-14T06:28:06.793Z,84.07
2023-05-14T06:30:36.757Z,83.61
2023-05-14T06:33:05.659Z,83.96
2023-05-14T06:35:35.199Z,86.12
2023-05-14T06:38:03.799Z,86.86
2023-05-14T06:40:32.206Z,87.32
2023-05-14T06:43:02.324Z,86.03
2023-05-14T06:45:33.253Z,88.79
2023-05-14T06:48:03.158Z,93.87
2023-05-14T06:50:32.134Z,97.07
2023-05-14T06:53:06.192Z,99.99
2023-05-14T06:55:34.266Z,100.00
2023-05-14T06:58:02.548Z,100.00
2023-05-14T07:00:31.623Z,100.00
2023-05-14T07:02:59.967Z,100.00
2023-05-14T07:05:29.813Z,100.00
2023-05-14T07:07:58.270Z,100.00
2023-05-14T07:10:26.605Z,100.00
2023-05-14T07:12:54.790Z,100.00
2023-05-14T07:15:22.747Z,100.00
2023-05-14T07:17:50.873Z,100.00
2023-05-14T07:20:18.944Z,100.00
2023-05-14T07:22:48.930Z,100.00
2023-05-14T07:25:17.457Z,100.00
2023-05-14T07:27:45.518Z,100.00
2023-05-14T07:30:14.091Z,100.00
2023-05-14T07:32:43.316Z,100.00
2023-05-14T07:35:12.777Z,100.00
2023-05-14T07:37:41.196Z,100.00
2023-05-14T07:40:12.127Z,100.00
2023-05-14T07:42:43.315Z,100.00
2023-05-14T07:45:12.369Z,100.00
2023-05-14T07:47:40.902Z,100.00
2023-05-14T07:50:10.017Z,100.00
2023-05-14T07:52:38.209Z,100.00
2023-05-14T07:55:07.405Z,100.00
2023-05-14T07:57:37.666Z,100.00
2023-05-14T08:00:08.144Z,100.00
2023-05-14T08:02:36.558Z,100.00
2023-05-14T08:05:05.288Z,100.00
2023-05-14T08:07:34.534Z,100.00
2023-05-14T08:10:02.707Z,100.00
2023-05-14T08:12:30.878Z,100.00
2023-05-14T08:15:00.334Z,100.00
2023-05-14T08:17:28.769Z,100.00
2023-05-14T08:19:57.915Z,100.00
2023-05-14T08:22:26.768Z,100.00
2023-05-14T08:24:57.897Z,100.00
2023-05-14T08:27:29.336Z,100.00
2023-05-14T08:29:57.732Z,100.00
2023-05-14T08:32:27.472Z,100.00
2023-05-14T08:34:55.699Z,100.00
2023-05-14T08:37:23.773Z,100.00
2023-05-14T08:39:52.490Z,100.00
2023-05-14T08:42:23.137Z,100.00
2023-05-14T08:44:59.112Z,100.00
2023-05-14T08:47:30.380Z,100.00
2023-05-14T08:50:04.592Z,100.00
2023-05-14T08:52:38.435Z,100.00
2023-05-14T08:55:11.359Z,100.00
2023-05-14T08:57:40.250Z,100.00
2023-05-14T09:00:11.783Z,100.00
2023-05-14T09:02:45.738Z,100.00
2023-05-14T09:05:14.575Z,100.00
2023-05-14T09:07:43.141Z,100.00
2023-05-14T09:10:12.341Z,100.00
2023-05-14T09:12:40.805Z,100.00
2023-05-14T09:15:09.797Z,100.00
2023-05-14T09:17:38.135Z,100.00
2023-05-14T09:20:10.276Z,100.00
2023-05-14T09:22:40.532Z,100.00
2023-05-14T09:25:12.557Z,100.00
2023-05-14T09:27:40.993Z,100.00
2023-05-14T09:30:12.083Z,100.00
2023-05-14T09:32:44.219Z,100.00
2023-05-14T09:35:19.439Z,100.00
2023-05-14T09:37:49.140Z,100.00
2023-05-14T09:40:19.900Z,100.00
2023-05-14T09:42:49.388Z,100.00
2023-05-14T09:45:18.109Z,100.00
2023-05-14T09:47:46.927Z,100.00
2023-05-14T09:50:17.185Z,100.00
2023-05-14T09:52:46.056Z,100.00
2023-05-14T09:55:15.656Z,100.00
2023-05-14T09:57:44.102Z,100.00
2023-05-14T10:00:13.677Z,100.00
2023-05-14T10:02:44.335Z,100.00
2023-05-14T10:05:16.077Z,100.00
2023-05-14T10:07:50.229Z,100.00
2023-05-14T10:10:21.480Z,100.00
2023-05-14T10:12:54.202Z,100.00
2023-05-14T10:15:28.400Z,100.00
2023-05-14T10:18:00.186Z,100.00
2023-05-14T10:20:30.185Z,100.00
2023-05-14T10:23:00.773Z,100.00
2023-05-14T10:25:31.337Z,100.00
2023-05-14T10:28:04.883Z,100.00
2023-05-14T10:30:33.876Z,100.00
2023-05-14T10:33:10.228Z,100.00
2023-05-14T10:35:59.687Z,100.00
2023-05-14T10:38:30.810Z,100.00
2023-05-14T10:41:04.032Z,100.00
2023-05-14T10:43:38.703Z,100.00
2023-05-14T10:46:08.559Z,100.00
2023-05-14T10:48:38.683Z,100.00
2023-05-14T10:51:10.206Z,100.00
2023-05-14T10:53:41.777Z,100.00
2023-05-14T10:56:15.818Z,100.00
2023-05-14T10:58:46.139Z,100.00
2023-05-14T11:01:15.696Z,100.00
2023-05-14T11:03:46.510Z,100.00
2023-05-14T11:06:17.826Z,100.00
2023-05-14T11:08:47.634Z,100.00
2023-05-14T11:11:20.045Z,100.00
2023-05-14T11:13:49.294Z,100.00
2023-05-14T11:16:23.415Z,100.00
2023-05-14T11:19:03.645Z,100.00
2023-05-14T11:21:34.068Z,100.00
2023-05-14T11:24:06.184Z,100.00
2023-05-14T11:26:35.830Z,100.00
2023-05-14T11:29:06.094Z,100.00
2023-05-14T11:31:34.778Z,100.00
2023-05-14T11:34:10.067Z,100.00
2023-05-14T11:36:42.352Z,100.00
2023-05-14T11:39:19.459Z,100.00
2023-05-14T11:41:48.071Z,100.00
2023-05-14T11:44:18.908Z,100.00
2023-05-14T11:46:56.336Z,100.00
2023-05-14T11:49:25.041Z,100.00
2023-05-14T11:51:59.307Z,100.00
2023-05-14T11:54:30.620Z,100.00
2023-05-14T11:57:01.968Z,100.00
2023-05-14T11:59:32.893Z,100.00
2023-05-14T12:02:01.423Z,100.00
2023-05-14T12:04:31.606Z,100.00
2023-05-14T12:07:01.510Z,100.00
2023-05-14T12:09:31.488Z,100.00
2023-05-14T12:12:09.141Z,100.00
2023-05-14T12:14:43.059Z,100.00
2023-05-14T12:17:17.770Z,100.00
2023-05-14T12:19:46.814Z,100.00
2023-05-14T12:22:19.263Z,100.00
2023-05-14T12:24:59.130Z,100.00
2023-05-14T12:27:28.793Z,100.00
2023-05-14T12:30:13.043Z,100.00
2023-05-14T12:32:49.079Z,100.00
2023-05-14T12:35:17.624Z,100.00
2023-05-14T12:37:45.945Z,100.00
2023-05-14T12:40:16.103Z,100.00
2023-05-14T12:42:46.676Z,100.00
2023-05-14T12:45:15.105Z,100.00
2023-05-14T12:47:43.600Z,100.00
2023-05-14T12:50:12.698Z,100.00
2023-05-14T12:52:41.058Z,100.00
2023-05-14T12:55:10.371Z,100.00
2023-05-14T12:57:40.438Z,100.00
2023-05-14T13:00:13.898Z,100.00
2023-05-14T13:02:43.678Z,100.00
2023-05-14T13:05:12.754Z,100.00
2023-05-14T13:07:41.131Z,100.00
2023-05-14T13:10:10.374Z,100.00
2023-05-14T13:12:39.898Z,100.00
2023-05-14T13:15:09.057Z,100.00
2023-05-14T13:17:37.565Z,100.00
2023-05-14T13:20:06.513Z,100.00
2023-05-14T13:22:34.671Z,100.00
2023-05-14T13:25:02.798Z,100.00
2023-05-14T13:27:30.930Z,100.00
2023-05-14T13:30:01.363Z,100.00
2023-05-14T13:32:29.615Z,100.00
2023-05-14T13:34:57.780Z,100.00
2023-05-14T13:37:26.304Z,100.00
2023-05-14T13:39:54.674Z,100.00
2023-05-14T13:42:23.742Z,100.00
2023-05-14T13:44:52.852Z,100.00
2023-05-14T13:47:22.736Z,100.00
2023-05-14T13:49:51.095Z,100.00
2023-05-14T13:52:19.755Z,100.00
2023-05-14T13:54:48.474Z,100.00
2023-05-14T13:57:16.711Z,100.00
2023-05-14T13:59:45.162Z,100.00
2023-05-14T14:02:13.333Z,100.00
2023-05-14T14:04:43.756Z,100.00
2023-05-14T14:07:12.158Z,100.00
2023-05-14T14:09:43.698Z,100.00
2023-05-14T14:12:12.156Z,100.00
2023-05-14T14:14:40.402Z,100.00
2023-05-14T14:17:09.112Z,100.00
2023-05-14T14:19:37.596Z,100.00
2023-05-14T14:22:07.650Z,100.00
2023-05-14T14:24:35.866Z,100.00
2023-05-14T14:27:04.107Z,100.00
2023-05-14T14:29:32.549Z,100.00
2023-05-14T14:32:01.166Z,100.00
2023-05-14T14:34:29.520Z,100.00
2023-05-14T14:36:57.596Z,100.00
2023-05-14T14:39:27.031Z,100.00
2023-05-14T14:41:55.626Z,100.00
2023-05-14T14:44:25.813Z,100.00
2023-05-14T14:46:57.112Z,100.00
2023-05-14T14:49:25.300Z,100.00
2023-05-14T14:51:54.357Z,100.00
2023-05-14T14:54:25.833Z,100.00
2023-05-14T14:56:57.994Z,100.00
2023-05-14T14:59:26.341Z,100.00
2023-05-14T15:01:54.612Z,100.00
2023-05-14T15:04:22.742Z,100.00
2023-05-14T15:06:50.847Z,100.00
2023-05-14T15:09:19.070Z,100.00
2023-05-14T15:11:47.282Z,100.00
2023-05-14T15:14:17.018Z,100.00
2023-05-14T15:16:45.355Z,100.00
2023-05-14T15:19:13.982Z,100.00
2023-05-14T15:21:42.213Z,100.00
2023-05-14T15:24:13.476Z,100.00
2023-05-14T15:26:42.203Z,100.00
2023-05-14T15:29:10.341Z,100.00
2023-05-14T15:31:41.108Z,100.00
2023-05-14T15:34:09.255Z,100.00
2023-05-14T15:36:37.864Z,100.00
2023-05-14T15:39:10.429Z,100.00
2023-05-14T15:41:38.653Z,100.00
2023-05-14T15:44:07.464Z,100.00
2023-05-14T15:46:35.985Z,100.00
2023-05-14T15:49:06.147Z,100.00
2023-05-14T15:51:34.282Z,100.00
2023-05-14T15:54:03.722Z,100.00
2023-05-14T15:56:32.845Z,100.00
2023-05-14T15:59:03.389Z,100.00
2023-05-14T16:01:32.212Z,100.00
2023-05-14T16:04:00.910Z,100.00
2023-05-14T16:06:31.392Z,100.00
2023-05-14T16:09:00.709Z,100.00
2023-05-14T16:11:29.457Z,100.00
2023-05-14T16:13:58.481Z,100.00
2023-05-14T16:16:26.978Z,100.00
2023-05-14T16:18:55.579Z,100.00
2023-05-14T16:21:24.176Z,100.00
2023-05-14T16:23:54.507Z,100.00
2023-05-14T16:26:22.840Z,100.00
2023-05-14T16:28:51.057Z,100.00
2023-05-14T16:31:19.687Z,100.00
2023-05-14T16:33:48.443Z,100.00
2023-05-14T16:36:16.705Z,100.00
2023-05-14T16:39:05.426Z,100.00
2023-05-14T16:41:34.274Z,100.00
2023-05-14T16:44:02.819Z,100.00
2023-05-14T16:46:32.396Z,100.00
2023-05-14T16:49:00.860Z,100.00
2023-05-14T16:51:29.132Z,100.00
2023-05-14T16:53:58.074Z,100.00
2023-05-14T16:56:28.245Z,100.00
2023-05-14T16:58:57.951Z,100.00
2023-05-14T17:01:26.423Z,100.00
2023-05-14T17:03:54.937Z,100.00
2023-05-14T17:06:23.460Z,100.00
2023-05-14T17:08:51.755Z,100.00
2023-05-14T17:11:22.778Z,100.00
2023-05-14T17:13:51.375Z,100.00
2023-05-14T17:16:22.766Z,100.00
2023-05-14T17:18:51.067Z,100.00
2023-05-14T17:21:20.890Z,100.00
2023-05-14T17:23:50.207Z,100.00
2023-05-14T17:26:19.102Z,100.00
2023-05-14T17:28:47.568Z,100.00
2023-05-14T17:31:16.919Z,100.00
2023-05-14T17:33:46.892Z,100.00
2023-05-14T17:36:16.715Z,100.00
2023-05-14T17:38:46.422Z,100.00
2023-05-14T17:41:15.046Z,100.00
2023-05-14T17:43:43.841Z,100.00
2023-05-14T17:46:12.423Z,100.00
2023-05-14T17:48:40.978Z,100.00
2023-05-14T17:51:11.434Z,100.00
2023-05-14T17:53:39.652Z,100.00
2023-05-14T17:56:09.252Z,100.00
2023-05-14T17:58:37.374Z,100.00
2023-05-14T18:01:08.310Z,100.00
2023-05-14T18:03:37.195Z,100.00
2023-05-14T18:06:06.182Z,100.00
2023-05-14T18:08:35.915Z,100.00
2023-05-14T18:11:04.056Z,100.00
2023-05-14T18:13:32.409Z,100.00
2023-05-14T18:16:02.064Z,100.00
2023-05-14T18:18:30.484Z,100.00
2023-05-14T18:20:58.785Z,100.00
2023-05-14T18:23:29.140Z,100.00
2023-05-14T18:26:00.301Z,100.00
2023-05-14T18:28:29.400Z,100.00
2023-05-14T18:30:57.694Z,100.00
2023-05-14T18:33:26.253Z,100.00
2023-05-14T18:35:54.754Z,100.00
2023-05-14T18:38:23.097Z,100.00
2023-05-14T18:40:51.486Z,100.00
2023-05-14T18:43:21.589Z,100.00
2023-05-14T18:46:00.418Z,100.00
2023-05-14T18:48:29.404Z,100.00
2023-05-14T18:50:57.659Z,100.00
2023-05-14T18:53:27.624Z,100.00
2023-05-14T18:55:56.137Z,100.00
2023-05-14T18:58:25.852Z,100.00
2023-05-14T19:00:54.218Z,100.00
2023-05-14T19:03:23.232Z,100.00
2023-05-14T19:05:51.933Z,100.00
2023-05-14T19:08:22.080Z,100.00
2023-05-14T19:10:51.131Z,100.00
2023-05-14T19:13:19.555Z,100.00
2023-05-14T19:15:49.004Z,100.00
2023-05-14T19:18:17.778Z,100.00
2023-05-14T19:20:47.129Z,100.00
2023-05-14T19:23:15.747Z,100.00
2023-05-14T19:25:43.993Z,100.00
2023-05-14T19:28:12.344Z,100.00
2023-05-14T19:30:40.700Z,100.00
2023-05-14T19:33:10.769Z,100.00
2023-05-14T19:35:39.102Z,100.00
2023-05-14T19:38:07.269Z,100.00
2023-05-14T19:40:35.482Z,100.00
2023-05-14T19:43:04.163Z,100.00
2023-05-14T19:45:32.784Z,100.00
2023-05-14T19:48:01.307Z,100.00
2023-05-14T19:50:32.459Z,100.00
2023-05-14T19:53:01.046Z,100.00
2023-05-14T19:55:29.610Z,100.00
2023-05-14T19:57:57.864Z,100.00
2023-05-14T20:00:27.089Z,100.00
2023-05-14T20:02:59.703Z,100.00
2023-05-14T20:05:30.693Z,100.00
2023-05-14T20:07:58.936Z,100.00
2023-05-14T20:10:27.722Z,100.00
2023-05-14T20:12:56.263Z,100.00
2023-05-14T20:15:25.967Z,100.00
2023-05-14T20:17:54.978Z,100.00
2023-05-14T20:20:24.274Z,100.00
2023-05-14T20:22:54.846Z,100.00
2023-05-14T20:25:23.218Z,100.00
2023-05-14T20:27:52.636Z,100.00
2023-05-14T20:30:21.181Z,100.00
2023-05-14T20:32:49.309Z,100.00
2023-05-14T20:35:18.836Z,100.00
2023-05-14T20:37:47.316Z,100.00
2023-05-14T20:40:17.138Z,100.00
2023-05-14T20:42:45.318Z,100.00
2023-05-14T20:45:13.824Z,100.00
2023-05-14T20:47:42.581Z,100.00
2023-05-14T20:50:10.923Z,100.00
2023-05-14T20:52:39.001Z,100.00
2023-05-14T20:55:13.718Z,100.00
2023-05-14T20:57:43.802Z,100.00
2023-05-14T21:00:13.698Z,100.00
2023-05-14T21:02:43.008Z,100.00
2023-05-14T21:05:13.965Z,100.00
2023-05-14T21:07:42.207Z,100.00
2023-05-14T21:10:11.583Z,100.00
2023-05-14T21:12:39.740Z,100.00
2023-05-14T21:15:11.027Z,100.00
2023-05-14T21:17:39.959Z,100.00
2023-05-14T21:20:09.412Z,100.00
2023-05-14T21:22:37.531Z,100.00
2023-05-14T21:25:06.338Z,100.00
2023-05-14T21:27:34.915Z,100.00
2023-05-14T21:30:03.033Z,100.00
2023-05-14T21:32:32.703Z,100.00
2023-05-14T21:35:00.843Z,100.00
2023-05-14T21:37:29.221Z,100.00
2023-05-14T21:39:57.340Z,100.00
2023-05-14T21:42:25.537Z,100.00
2023-05-14T21:44:53.867Z,100.00
2023-05-14T21:47:22.310Z,100.00
2023-05-14T21:49:51.781Z,100.00
2023-05-14T21:52:19.923Z,100.00
2023-05-14T21:54:47.994Z,100.00
2023-05-14T21:57:17.914Z,100.00
2023-05-14T21:59:46.182Z,100.00
2023-05-14T22:02:14.388Z,100.00
2023-05-14T22:04:42.528Z,100.00
2023-05-14T22:07:12.267Z,100.00
2023-05-14T22:09:40.398Z,100.00
2023-05-14T22:12:09.229Z,100.00
2023-05-14T22:14:38.321Z,100.00
2023-05-14T22:17:06.641Z,100.00
2023-05-14T22:19:34.779Z,100.00
2023-05-14T22:22:03.459Z,100.00
2023-05-14T22:24:33.057Z,100.00
2023-05-14T22:27:01.126Z,100.00
2023-05-14T22:29:29.289Z,100.00
2023-05-14T22:31:57.511Z,100.00
2023-05-14T22:34:25.784Z,100.00
2023-05-14T22:36:53.941Z,100.00
2023-05-14T22:39:22.088Z,100.00
2023-05-14T22:41:55.201Z,100.00
2023-05-14T22:44:23.538Z,100.00
2023-05-14T22:46:51.869Z,100.00
2023-05-14T22:49:20.105Z,100.00
2023-05-14T22:51:48.234Z,100.00
2023-05-14T22:54:16.705Z,100.00
2023-05-14T22:56:45.777Z,100.00
2023-05-14T22:59:15.507Z,100.00
2023-05-14T23:01:43.662Z,100.00
2023-05-14T23:04:11.770Z,100.00
2023-05-14T23:06:40.084Z,100.00
2023-05-14T23:09:08.136Z,100.00
2023-05-14T23:11:36.337Z,100.00
2023-05-14T23:14:05.169Z,100.00
2023-05-14T23:16:35.372Z,100.00
2023-05-14T23:19:03.804Z,100.00
2023-05-14T23:21:32.670Z,100.00
2023-05-14T23:24:01.332Z,100.00
2023-05-14T23:26:29.535Z,100.00
2023-05-14T23:28:57.640Z,100.00
2023-05-14T23:31:25.877Z,100.00
2023-05-14T23:33:55.466Z,100.00
2023-05-14T23:36:23.946Z,100.00
2023-05-14T23:38:52.801Z,100.00
2023-05-14T23:41:21.820Z,100.00
2023-05-14T23:43:50.046Z,100.00
2023-05-14T23:46:18.322Z,100.00
2023-05-14T23:48:46.541Z,100.00
2023-05-14T23:51:16.055Z,100.00
2023-05-14T23:53:44.171Z,100.00
2023-05-14T23:56:13.005Z,100.00
2023-05-14T23:58:41.146Z,100.00
